createdAt,value
2019-05-10T00:02:09.518Z,60.47
2019-05-10T00:12:18.218Z,61.10
2019-05-10T00:22:20.829Z,60.92
2019-05-10T00:32:22.227Z,61.27
2019-05-10T00:42:23.803Z,61.47
2019-05-10T00:52:25.194Z,61.77
2019-05-10T01:02:26.598Z,61.97
2019-05-10T01:12:27.810Z,61.86
2019-05-10T01:22:29.255Z,62.04
2019-05-10T01:32:30.636Z,61.56
2019-05-10T01:42:32.039Z,60.92
2019-05-10T01:52:33.647Z,60.44
2019-05-10T02:02:35.156Z,60.41
2019-05-10T02:12:36.625Z,60.79
2019-05-10T02:22:38.025Z,60.83
2019-05-10T02:32:39.337Z,60.75
2019-05-10T02:42:40.758Z,61.49
2019-05-10T02:52:42.084Z,61.87
2019-05-10T03:02:44.246Z,62.58
2019-05-10T03:12:49.364Z,63.86
2019-05-10T03:22:51.693Z,64.23
2019-05-10T03:32:52.998Z,65.44
2019-05-10T03:42:54.424Z,66.27
2019-05-10T03:52:55.836Z,67.02
2019-05-10T04:02:57.183Z,67.62
2019-05-10T04:12:58.475Z,67.78
2019-05-10T04:22:59.805Z,66.51
2019-05-10T04:33:01.234Z,64.66
2019-05-10T04:43:02.876Z,64.05
2019-05-10T04:53:04.356Z,63.56
2019-05-10T05:03:06.781Z,58.99
2019-05-10T05:13:08.142Z,56.40
2019-05-10T05:23:09.479Z,55.03
2019-05-10T05:33:10.838Z,53.87
2019-05-10T05:43:12.261Z,50.62
2019-05-10T05:53:13.659Z,46.74
2019-05-10T06:03:19.274Z,44.48
2019-05-10T06:13:23.443Z,42.81
2019-05-10T06:23:22.731Z,26.42
2019-05-10T06:33:24.054Z,16.49
2019-05-10T06:43:25.475Z,13.17
2019-05-10T06:53:26.576Z,14.28
2019-05-10T07:03:27.986Z,10.99
2019-05-10T07:13:29.341Z,12.79
2019-05-10T07:23:30.680Z,20.27
2019-05-10T07:33:32.346Z,27.23
2019-05-10T07:43:35.316Z,28.74
2019-05-10T07:53:36.562Z,15.03
2019-05-10T08:03:44.287Z,10.40
2019-05-10T08:13:41.278Z,15.61
2019-05-10T08:23:43.858Z,16.31
2019-05-10T08:33:53.681Z,17.68
2019-05-10T08:43:48.670Z,20.05
2019-05-10T08:53:53.521Z,20.93
2019-05-10T09:03:59.368Z,21.61
2019-05-10T09:13:57.841Z,17.30
2019-05-10T09:24:04.941Z,16.19
2019-05-10T09:34:02.949Z,27.06
2019-05-10T09:44:04.346Z,31.33
2019-05-10T09:54:07.692Z,23.43
2019-05-10T10:04:09.080Z,24.03
2019-05-10T10:14:10.650Z,24.92
2019-05-10T10:24:17.423Z,26.00
2019-05-10T10:34:17.340Z,27.78
2019-05-10T10:44:18.569Z,26.30
2019-05-10T10:54:22.497Z,24.38
2019-05-10T11:04:23.436Z,24.45
2019-05-10T11:14:25.280Z,21.76
2019-05-10T11:24:26.706Z,20.44
2019-05-10T11:34:31.502Z,19.98
2019-05-10T11:44:31.777Z,20.79
2019-05-10T11:54:33.238Z,20.62
2019-05-10T12:04:39.231Z,20.73
2019-05-10T12:14:37.940Z,21.17
2019-05-10T12:26:05.677Z,20.57
2019-05-10T12:34:46.068Z,23.20
2019-05-10T12:44:47.950Z,26.56
2019-05-10T12:54:49.300Z,31.67
2019-05-10T13:04:52.386Z,34.60
2019-05-10T13:14:53.933Z,30.16
2019-05-10T13:24:55.353Z,27.74
2019-05-10T13:34:56.814Z,26.59
2019-05-10T13:44:58.277Z,26.18
2019-05-10T13:54:59.837Z,27.91
2019-05-10T14:05:01.252Z,29.16
2019-05-10T14:15:09.873Z,30.40
2019-05-10T14:25:07.970Z,32.15
2019-05-10T14:35:09.555Z,29.79
2019-05-10T14:45:11.267Z,30.98
2019-05-10T14:55:13.086Z,31.42
2019-05-10T15:05:18.019Z,32.64
2019-05-10T15:15:17.838Z,39.59
2019-05-10T15:25:19.393Z,43.16
2019-05-10T15:35:20.959Z,45.49
2019-05-10T15:45:22.488Z,39.90
2019-05-10T15:55:27.427Z,37.68
2019-05-10T16:05:43.185Z,39.97
2019-05-10T16:15:33.155Z,39.29
2019-05-10T16:25:41.142Z,39.53
2019-05-10T16:35:39.207Z,40.62
2019-05-10T16:45:40.855Z,39.73
2019-05-10T16:55:42.949Z,40.46
2019-05-10T17:05:53.102Z,40.54
2019-05-10T17:15:47.662Z,41.77
2019-05-10T17:25:48.835Z,44.45
2019-05-10T17:35:50.353Z,46.01
2019-05-10T17:45:51.775Z,46.70
2019-05-10T17:55:56.672Z,46.72
2019-05-10T18:05:57.761Z,49.43
2019-05-10T18:15:59.199Z,48.81
2019-05-10T18:26:00.541Z,48.42
2019-05-10T18:36:01.889Z,49.91
2019-05-10T18:46:03.375Z,51.55
2019-05-10T18:56:04.885Z,54.11
2019-05-10T19:06:10.996Z,56.59
2019-05-10T19:16:09.525Z,56.80
2019-05-10T19:26:10.956Z,57.26
2019-05-10T19:36:14.314Z,56.82
2019-05-10T19:46:15.877Z,56.67
2019-05-10T19:56:17.312Z,57.02
2019-05-10T20:06:18.828Z,56.66
2019-05-10T20:16:20.273Z,56.84
2019-05-10T20:26:21.723Z,57.63
2019-05-10T20:36:23.149Z,58.38
2019-05-10T20:46:24.575Z,58.54
2019-05-10T20:56:26.010Z,59.99
2019-05-10T21:06:27.242Z,60.82
2019-05-10T21:16:28.578Z,62.24
2019-05-10T21:26:30.283Z,61.62
2019-05-10T21:36:31.651Z,60.32
2019-05-10T21:46:33.119Z,58.21
2019-05-10T21:56:36.181Z,58.79
2019-05-10T22:06:37.867Z,60.52
2019-05-10T22:16:39.380Z,60.56
2019-05-10T22:26:40.981Z,60.18
2019-05-10T22:36:42.391Z,59.90
2019-05-10T22:46:43.866Z,59.79
2019-05-10T22:56:45.465Z,60.81
2019-05-10T23:06:46.980Z,59.95
2019-05-10T23:16:48.405Z,59.75
2019-05-10T23:26:49.833Z,60.63
2019-05-10T23:36:51.313Z,61.61
2019-05-10T23:46:52.829Z,62.82
2019-05-10T23:56:54.290Z,62.02
